createdAt,value
2023-05-17T00:01:45.764Z,11.39
2023-05-17T00:04:12.610Z,11.42
2023-05-17T00:06:39.280Z,11.36
2023-05-17T00:09:06.021Z,11.34
2023-05-17T00:11:32.662Z,11.33
2023-05-17T00:13:59.329Z,11.27
2023-05-17T00:16:25.951Z,11.19
2023-05-17T00:18:52.822Z,11.17
2023-05-17T00:21:19.558Z,11.13
2023-05-17T00:23:46.314Z,11.15
2023-05-17T00:26:12.986Z,11.14
2023-05-17T00:28:39.969Z,11.11
2023-05-17T00:31:06.669Z,11.15
2023-05-17T00:33:33.408Z,11.12
2023-05-17T00:36:00.044Z,11.09
2023-05-17T00:38:26.710Z,11.09
2023-05-17T00:40:53.320Z,11.10
2023-05-17T00:43:19.915Z,11.10
2023-05-17T00:45:46.672Z,11.09
2023-05-17T00:48:13.659Z,11.05
2023-05-17T00:50:40.994Z,11.00
2023-05-17T00:53:09.371Z,10.99
2023-05-17T00:55:36.041Z,10.91
2023-05-17T00:58:02.721Z,10.96
2023-05-17T01:00:29.392Z,10.98
2023-05-17T01:02:56.179Z,10.98
2023-05-17T01:05:23.066Z,10.97
2023-05-17T01:07:49.745Z,10.97
2023-05-17T01:10:16.421Z,10.95
2023-05-17T01:12:55.343Z,10.97
2023-05-17T01:15:28.645Z,10.98
2023-05-17T01:18:23.854Z,10.95
2023-05-17T01:20:52.778Z,10.95
2023-05-17T01:23:42.185Z,10.92
2023-05-17T01:26:18.460Z,10.91
2023-05-17T01:28:52.560Z,10.90
2023-05-17T01:31:20.447Z,10.88
2023-05-17T01:33:47.846Z,10.88
2023-05-17T01:36:14.695Z,10.88
2023-05-17T01:38:41.664Z,10.88
2023-05-17T01:41:15.670Z,10.86
2023-05-17T01:44:00.313Z,10.88
2023-05-17T01:46:33.216Z,10.86
2023-05-17T01:49:21.593Z,10.86
2023-05-17T01:51:57.559Z,10.88
2023-05-17T01:54:31.718Z,10.85
2023-05-17T01:56:59.375Z,10.84
2023-05-17T01:59:27.702Z,10.83
2023-05-17T02:01:58.872Z,10.81
2023-05-17T02:04:25.668Z,10.81
2023-05-17T02:06:52.710Z,10.79
2023-05-17T02:09:19.383Z,10.80
2023-05-17T02:11:46.132Z,10.81
2023-05-17T02:14:12.870Z,10.80
2023-05-17T02:16:40.144Z,10.78
2023-05-17T02:19:06.796Z,10.80
2023-05-17T02:21:33.414Z,10.81
2023-05-17T02:24:00.151Z,10.82
2023-05-17T02:26:26.848Z,10.82
2023-05-17T02:28:54.024Z,10.79
2023-05-17T02:31:21.022Z,10.78
2023-05-17T02:33:49.517Z,10.77
2023-05-17T02:36:16.235Z,10.77
2023-05-17T02:38:42.900Z,10.78
2023-05-17T02:41:09.701Z,10.78
2023-05-17T02:43:36.373Z,10.78
2023-05-17T02:46:03.992Z,10.78
2023-05-17T02:48:30.685Z,10.80
2023-05-17T02:50:57.253Z,10.82
2023-05-17T02:53:24.111Z,10.83
2023-05-17T02:55:50.834Z,10.85
2023-05-17T02:58:17.452Z,10.85
2023-05-17T03:00:46.721Z,10.86
2023-05-17T03:03:14.940Z,10.86
2023-05-17T03:05:41.732Z,10.88
2023-05-17T03:08:09.016Z,10.91
2023-05-17T03:10:36.220Z,10.89
2023-05-17T03:13:03.244Z,10.92
2023-05-17T03:15:34.605Z,10.94
2023-05-17T03:18:01.473Z,10.97
2023-05-17T03:20:28.840Z,10.97
2023-05-17T03:22:56.262Z,10.99
2023-05-17T03:25:22.950Z,11.01
2023-05-17T03:27:50.147Z,11.04
2023-05-17T03:30:16.992Z,11.06
2023-05-17T03:32:45.505Z,10.98
2023-05-17T03:35:12.178Z,11.04
2023-05-17T03:37:43.263Z,11.06
2023-05-17T03:40:10.405Z,11.06
2023-05-17T03:42:37.091Z,11.05
2023-05-17T03:45:05.445Z,11.04
2023-05-17T03:47:32.330Z,11.03
2023-05-17T03:49:59.471Z,11.04
2023-05-17T03:52:26.227Z,11.02
2023-05-17T03:54:53.017Z,11.01
2023-05-17T03:57:19.918Z,11.02
2023-05-17T03:59:46.591Z,10.99
2023-05-17T04:02:16.060Z,10.96
2023-05-17T04:04:49.251Z,10.95
2023-05-17T04:07:17.662Z,10.95
2023-05-17T04:09:44.783Z,10.94
2023-05-17T04:12:11.454Z,10.95
2023-05-17T04:14:38.866Z,10.94
2023-05-17T04:17:05.629Z,10.94
2023-05-17T04:19:32.867Z,10.93
2023-05-17T04:22:00.608Z,10.94
2023-05-17T04:24:27.745Z,10.92
2023-05-17T04:26:54.994Z,10.90
2023-05-17T04:29:24.516Z,10.87
2023-05-17T04:31:51.453Z,10.85
2023-05-17T04:34:18.363Z,10.82
2023-05-17T04:36:45.638Z,10.80
2023-05-17T04:39:12.479Z,10.79
2023-05-17T04:41:39.832Z,10.80
2023-05-17T04:44:10.276Z,10.77
2023-05-17T04:46:37.129Z,10.74
2023-05-17T04:49:04.132Z,10.72
2023-05-17T04:51:31.236Z,10.68
2023-05-17T04:53:58.250Z,10.65
2023-05-17T04:56:25.227Z,10.62
2023-05-17T04:58:53.004Z,10.60
2023-05-17T05:01:20.431Z,10.50
2023-05-17T05:03:50.142Z,10.54
2023-05-17T05:06:17.310Z,10.53
2023-05-17T05:08:44.435Z,10.52
2023-05-17T05:11:12.364Z,10.55
2023-05-17T05:13:39.210Z,10.56
2023-05-17T05:16:07.173Z,10.56
2023-05-17T05:18:34.981Z,10.56
2023-05-17T05:21:02.141Z,10.55
2023-05-17T05:23:30.117Z,10.56
2023-05-17T05:25:56.854Z,10.56
2023-05-17T05:28:23.526Z,10.58
2023-05-17T05:30:50.187Z,10.58
2023-05-17T05:33:17.189Z,10.57
2023-05-17T05:35:45.619Z,10.57
2023-05-17T05:38:12.249Z,10.57
2023-05-17T05:40:39.515Z,10.57
2023-05-17T05:43:06.155Z,10.59
2023-05-17T05:45:32.779Z,10.61
2023-05-17T05:48:02.582Z,10.64
2023-05-17T05:50:29.721Z,10.67
2023-05-17T05:53:10.990Z,10.70
2023-05-17T05:55:42.623Z,10.74
2023-05-17T05:58:09.994Z,10.75
2023-05-17T06:00:38.114Z,10.77
2023-05-17T06:03:05.429Z,10.83
2023-05-17T06:05:32.311Z,10.82
2023-05-17T06:07:59.123Z,10.87
2023-05-17T06:10:25.829Z,10.89
2023-05-17T06:12:52.516Z,10.90
2023-05-17T06:15:19.204Z,10.91
2023-05-17T06:17:46.080Z,10.91
2023-05-17T06:20:13.048Z,10.94
2023-05-17T06:22:39.725Z,10.92
2023-05-17T06:25:06.582Z,10.92
2023-05-17T06:27:33.300Z,10.94
2023-05-17T06:30:00.189Z,10.95
2023-05-17T06:32:26.906Z,10.97
2023-05-17T06:34:53.547Z,10.94
2023-05-17T06:37:20.317Z,10.94
2023-05-17T06:39:55.875Z,10.98
2023-05-17T06:42:26.697Z,10.98
2023-05-17T06:44:53.273Z,10.99
2023-05-17T06:47:20.058Z,10.99
2023-05-17T06:49:46.714Z,10.99
2023-05-17T06:52:13.486Z,11.00
2023-05-17T06:54:40.123Z,10.98
2023-05-17T06:57:06.818Z,10.95
2023-05-17T06:59:33.535Z,10.92
2023-05-17T07:02:00.201Z,10.92
2023-05-17T07:04:27.347Z,10.92
2023-05-17T07:06:54.153Z,10.92
2023-05-17T07:09:21.375Z,10.97
2023-05-17T07:11:48.515Z,10.98
2023-05-17T07:14:15.260Z,11.01
2023-05-17T07:16:41.898Z,11.08
2023-05-17T07:19:08.717Z,11.11
2023-05-17T07:21:35.396Z,11.16
2023-05-17T07:24:02.067Z,11.24
2023-05-17T07:26:28.780Z,11.33
2023-05-17T07:28:55.374Z,11.44
2023-05-17T07:31:22.067Z,11.58
2023-05-17T07:33:49.012Z,11.71
2023-05-17T07:36:15.734Z,11.83
2023-05-17T07:38:42.453Z,11.94
2023-05-17T07:41:09.540Z,12.06
2023-05-17T07:43:39.086Z,12.16
2023-05-17T07:46:05.947Z,12.25
2023-05-17T07:48:32.829Z,12.33
2023-05-17T07:50:59.537Z,12.40
2023-05-17T07:53:26.165Z,12.50
2023-05-17T07:55:52.764Z,12.56
2023-05-17T07:58:19.591Z,12.61
2023-05-17T08:00:46.260Z,12.66
2023-05-17T08:03:14.587Z,12.70
2023-05-17T08:05:43.251Z,12.78
2023-05-17T08:08:09.924Z,12.78
2023-05-17T08:10:36.661Z,12.80
2023-05-17T08:13:04.196Z,12.79
2023-05-17T08:15:31.063Z,12.79
2023-05-17T08:17:58.012Z,12.78
2023-05-17T08:20:24.776Z,12.81
2023-05-17T08:22:51.391Z,12.89
2023-05-17T08:25:19.997Z,12.94
2023-05-17T08:27:46.625Z,12.97
2023-05-17T08:30:15.184Z,13.03
2023-05-17T08:32:48.459Z,13.11
2023-05-17T08:35:15.217Z,13.15
2023-05-17T08:37:41.809Z,13.18
2023-05-17T08:40:09.083Z,13.18
2023-05-17T08:42:37.162Z,13.12
2023-05-17T08:45:05.832Z,13.15
2023-05-17T08:47:33.309Z,13.19
2023-05-17T08:50:00.052Z,13.17
2023-05-17T08:52:30.325Z,13.18
2023-05-17T08:54:57.130Z,13.18
2023-05-17T08:57:25.307Z,13.19
2023-05-17T08:59:52.675Z,13.23
2023-05-17T09:02:19.802Z,13.32
2023-05-17T09:04:47.075Z,13.42
2023-05-17T09:07:15.216Z,13.54
2023-05-17T09:09:43.257Z,13.70
2023-05-17T09:12:09.928Z,13.86
2023-05-17T09:14:36.595Z,14.00
2023-05-17T09:17:03.290Z,14.12
2023-05-17T09:19:30.934Z,14.16
2023-05-17T09:22:00.705Z,14.21
2023-05-17T09:24:29.177Z,14.29
2023-05-17T09:27:04.067Z,14.39
2023-05-17T09:29:32.706Z,14.50
2023-05-17T09:32:19.060Z,14.58
2023-05-17T09:34:46.983Z,14.67
2023-05-17T09:37:15.440Z,14.76
2023-05-17T09:39:43.569Z,14.85
2023-05-17T09:42:10.355Z,14.86
2023-05-17T09:44:48.076Z,15.06
2023-05-17T09:47:28.503Z,15.20
2023-05-17T09:49:59.892Z,15.28
2023-05-17T09:52:27.210Z,15.35
2023-05-17T09:54:55.786Z,15.38
2023-05-17T09:57:22.912Z,15.42
2023-05-17T09:59:50.559Z,15.41
2023-05-17T10:02:22.837Z,15.40
2023-05-17T10:04:50.856Z,15.48
2023-05-17T10:07:21.292Z,15.54
2023-05-17T10:09:48.945Z,15.67
2023-05-17T10:12:18.385Z,15.74
2023-05-17T10:14:45.654Z,15.82
2023-05-17T10:17:12.926Z,15.85
2023-05-17T10:19:40.471Z,15.86
2023-05-17T10:22:21.687Z,15.85
2023-05-17T10:24:51.153Z,15.82
2023-05-17T10:27:18.242Z,15.76
2023-05-17T10:29:47.715Z,15.71
2023-05-17T10:32:16.652Z,15.72
2023-05-17T10:34:45.740Z,15.72
2023-05-17T10:37:14.251Z,15.73
2023-05-17T10:39:41.442Z,15.85
2023-05-17T10:42:14.748Z,15.94
2023-05-17T10:44:42.692Z,16.07
2023-05-17T10:47:10.573Z,16.20
2023-05-17T10:49:38.898Z,16.31
2023-05-17T10:52:21.301Z,16.40
2023-05-17T10:54:49.272Z,16.60
2023-05-17T10:57:21.521Z,16.73
2023-05-17T10:59:59.506Z,16.84
2023-05-17T11:02:28.139Z,16.83
2023-05-17T11:04:55.374Z,16.86
2023-05-17T11:07:26.401Z,16.85
2023-05-17T11:10:20.638Z,16.86
2023-05-17T11:12:48.189Z,16.99
2023-05-17T11:15:16.979Z,17.05
2023-05-17T11:17:43.608Z,17.12
2023-05-17T11:20:31.677Z,17.13
2023-05-17T11:23:17.129Z,17.09
2023-05-17T11:25:45.388Z,17.09
2023-05-17T11:28:20.099Z,16.96
2023-05-17T11:30:46.928Z,16.84
2023-05-17T11:33:25.331Z,16.96
2023-05-17T11:35:56.800Z,16.92
2023-05-17T11:38:27.450Z,16.92
2023-05-17T11:40:55.512Z,16.92
2023-05-17T11:43:24.250Z,16.96
2023-05-17T11:45:58.962Z,16.96
2023-05-17T11:48:26.612Z,17.04
2023-05-17T11:50:55.824Z,17.06
2023-05-17T11:53:24.434Z,17.11
2023-05-17T11:55:52.781Z,17.17
2023-05-17T11:58:26.610Z,17.13
2023-05-17T12:00:55.392Z,17.01
2023-05-17T12:03:27.669Z,16.99
2023-05-17T12:06:09.696Z,16.86
2023-05-17T12:08:38.777Z,16.74
2023-05-17T12:11:07.084Z,16.57
2023-05-17T12:13:35.005Z,16.41
2023-05-17T12:16:03.743Z,16.37
2023-05-17T12:18:41.144Z,16.36
2023-05-17T12:21:09.039Z,16.32
2023-05-17T12:23:38.023Z,16.32
2023-05-17T12:26:18.560Z,16.29
2023-05-17T12:28:54.426Z,16.25
2023-05-17T12:31:26.880Z,16.23
2023-05-17T12:33:54.463Z,16.26
2023-05-17T12:36:22.258Z,16.26
2023-05-17T12:38:49.352Z,16.25
2023-05-17T12:41:16.703Z,16.25
2023-05-17T12:43:46.274Z,16.22
2023-05-17T12:46:20.203Z,16.21
2023-05-17T12:48:48.188Z,16.25
2023-05-17T12:51:17.402Z,16.27
2023-05-17T12:53:45.121Z,16.25
2023-05-17T12:56:17.615Z,16.27
2023-05-17T12:58:45.100Z,16.29
2023-05-17T13:01:11.935Z,16.31
2023-05-17T13:03:38.798Z,16.35
2023-05-17T13:06:07.270Z,16.40
2023-05-17T13:08:34.515Z,16.46
2023-05-17T13:11:14.631Z,16.50
2023-05-17T13:13:42.256Z,16.56
2023-05-17T13:16:08.891Z,16.58
2023-05-17T13:18:49.089Z,16.62
2023-05-17T13:21:17.788Z,16.78
2023-05-17T13:23:46.524Z,16.90
2023-05-17T13:26:13.376Z,17.06
2023-05-17T13:28:40.291Z,17.24
2023-05-17T13:31:07.103Z,17.44
2023-05-17T13:33:33.759Z,17.80
2023-05-17T13:36:00.537Z,18.04
2023-05-17T13:38:27.122Z,18.10
2023-05-17T13:40:54.400Z,18.21
2023-05-17T13:43:21.143Z,18.32
2023-05-17T13:45:47.744Z,18.34
2023-05-17T13:48:14.659Z,18.47
2023-05-17T13:50:41.343Z,18.59
2023-05-17T13:53:07.936Z,18.69
2023-05-17T13:55:34.658Z,18.77
2023-05-17T13:58:01.331Z,18.73
2023-05-17T14:00:28.183Z,18.81
2023-05-17T14:02:55.151Z,18.95
2023-05-17T14:05:21.914Z,19.01
2023-05-17T14:07:48.507Z,18.96
2023-05-17T14:10:15.316Z,18.88
2023-05-17T14:12:41.936Z,18.83
2023-05-17T14:15:09.701Z,18.83
2023-05-17T14:17:36.395Z,18.90
2023-05-17T14:20:03.614Z,18.93
2023-05-17T14:22:30.499Z,18.96
2023-05-17T14:24:57.143Z,19.02
2023-05-17T14:27:23.891Z,19.02
2023-05-17T14:29:50.671Z,19.06
2023-05-17T14:32:17.345Z,19.13
2023-05-17T14:34:44.972Z,19.23
2023-05-17T14:37:11.605Z,19.28
2023-05-17T14:39:38.264Z,19.33
2023-05-17T14:42:05.223Z,19.40
2023-05-17T14:44:31.869Z,19.45
2023-05-17T14:46:58.705Z,19.49
2023-05-17T14:49:25.440Z,19.50
2023-05-17T14:51:52.045Z,19.40
2023-05-17T14:54:18.776Z,19.31
2023-05-17T14:56:45.423Z,19.19
2023-05-17T14:59:12.187Z,19.11
2023-05-17T15:01:38.940Z,19.07
2023-05-17T15:04:05.619Z,19.02
2023-05-17T15:06:32.571Z,19.00
2023-05-17T15:08:59.286Z,19.01
2023-05-17T15:11:26.060Z,18.96
2023-05-17T15:13:52.818Z,18.96
2023-05-17T15:16:19.607Z,18.88
2023-05-17T15:18:46.864Z,18.78
2023-05-17T15:21:13.511Z,18.70
2023-05-17T15:23:40.193Z,18.57
2023-05-17T15:26:06.843Z,18.45
2023-05-17T15:28:33.518Z,18.40
2023-05-17T15:31:04.439Z,18.41
2023-05-17T15:33:31.141Z,18.48
2023-05-17T15:35:58.412Z,18.56
2023-05-17T15:38:25.179Z,18.63
2023-05-17T15:41:15.716Z,18.63
2023-05-17T15:43:43.009Z,18.62
2023-05-17T15:46:09.674Z,18.60
2023-05-17T15:48:36.428Z,18.54
2023-05-17T15:51:03.275Z,18.45
2023-05-17T15:53:30.651Z,18.36
2023-05-17T15:55:57.272Z,18.22
2023-05-17T15:58:25.687Z,18.09
2023-05-17T16:00:52.492Z,18.00
2023-05-17T16:03:19.420Z,17.91
2023-05-17T16:05:46.069Z,17.80
2023-05-17T16:08:12.809Z,17.73
2023-05-17T16:10:39.429Z,17.70
2023-05-17T16:13:06.354Z,17.65
2023-05-17T16:15:35.971Z,17.59
2023-05-17T16:18:02.621Z,17.54
2023-05-17T16:20:29.564Z,17.49
2023-05-17T16:22:56.352Z,17.43
2023-05-17T16:25:24.626Z,17.40
2023-05-17T16:27:51.481Z,17.21
2023-05-17T16:30:18.815Z,17.26
2023-05-17T16:32:46.439Z,17.16
2023-05-17T16:35:13.254Z,17.13
2023-05-17T16:37:40.351Z,17.12
2023-05-17T16:40:07.925Z,17.09
2023-05-17T16:42:34.600Z,16.99
2023-05-17T16:45:01.207Z,16.95
2023-05-17T16:47:28.044Z,16.95
2023-05-17T16:49:55.067Z,16.91
2023-05-17T16:52:21.968Z,16.90
2023-05-17T16:54:48.878Z,16.94
2023-05-17T16:57:16.132Z,16.93
2023-05-17T16:59:42.768Z,16.92
2023-05-17T17:02:09.622Z,16.94
2023-05-17T17:04:36.382Z,16.99
2023-05-17T17:07:03.418Z,17.01
2023-05-17T17:09:30.120Z,17.02
2023-05-17T17:11:56.810Z,17.07
2023-05-17T17:14:23.564Z,17.10
2023-05-17T17:16:50.171Z,17.12
2023-05-17T17:19:16.814Z,17.16
2023-05-17T17:21:43.546Z,17.28
2023-05-17T17:24:10.167Z,17.51
2023-05-17T17:26:36.796Z,17.80
2023-05-17T17:29:04.554Z,18.07
2023-05-17T17:31:34.288Z,18.26
2023-05-17T17:34:01.045Z,18.43
2023-05-17T17:36:27.764Z,18.61
2023-05-17T17:38:54.369Z,18.79
2023-05-17T17:41:21.053Z,18.97
2023-05-17T17:43:47.789Z,19.19
2023-05-17T17:46:14.384Z,19.26
2023-05-17T17:48:42.017Z,19.29
2023-05-17T17:51:08.609Z,19.25
2023-05-17T17:53:35.311Z,19.14
2023-05-17T17:56:01.926Z,18.99
2023-05-17T17:58:28.599Z,18.83
2023-05-17T18:00:55.461Z,18.63
2023-05-17T18:03:22.197Z,18.37
2023-05-17T18:05:48.811Z,18.10
2023-05-17T18:08:15.596Z,17.83
2023-05-17T18:10:42.362Z,17.57
2023-05-17T18:13:09.055Z,17.33
2023-05-17T18:15:35.726Z,17.16
2023-05-17T18:18:02.509Z,16.95
2023-05-17T18:20:29.472Z,16.73
2023-05-17T18:22:56.300Z,16.48
2023-05-17T18:25:22.983Z,16.32
2023-05-17T18:27:49.696Z,16.22
2023-05-17T18:30:17.350Z,16.00
2023-05-17T18:32:44.737Z,15.77
2023-05-17T18:35:11.616Z,15.56
2023-05-17T18:37:38.323Z,15.40
2023-05-17T18:40:05.512Z,15.24
2023-05-17T18:42:32.271Z,15.13
2023-05-17T18:44:58.863Z,15.02
2023-05-17T18:47:25.743Z,14.95
2023-05-17T18:49:52.597Z,14.88
2023-05-17T18:52:19.413Z,14.81
2023-05-17T18:54:46.038Z,14.72
2023-05-17T18:57:12.655Z,14.64
2023-05-17T18:59:39.498Z,14.56
2023-05-17T19:02:06.141Z,14.47
2023-05-17T19:04:32.984Z,14.38
2023-05-17T19:06:59.838Z,14.31
2023-05-17T19:09:26.507Z,14.30
2023-05-17T19:11:54.213Z,14.24
2023-05-17T19:14:20.909Z,14.15
2023-05-17T19:16:47.616Z,14.11
2023-05-17T19:19:14.265Z,14.14
2023-05-17T19:21:41.138Z,14.08
2023-05-17T19:24:07.875Z,13.96
2023-05-17T19:26:34.659Z,13.89
2023-05-17T19:29:01.369Z,13.82
2023-05-17T19:31:28.020Z,13.84
2023-05-17T19:33:54.873Z,13.74
2023-05-17T19:36:21.463Z,13.67
2023-05-17T19:38:49.944Z,13.65
2023-05-17T19:41:18.697Z,13.59
2023-05-17T19:43:45.454Z,13.57
2023-05-17T19:46:12.136Z,13.55
2023-05-17T19:48:38.900Z,13.52
2023-05-17T19:51:05.768Z,13.46
2023-05-17T19:53:43.895Z,13.42
2023-05-17T19:56:17.969Z,13.35
2023-05-17T19:58:44.584Z,13.34
2023-05-17T20:01:11.182Z,13.32
2023-05-17T20:03:37.896Z,13.31
2023-05-17T20:06:04.776Z,13.33
2023-05-17T20:08:31.368Z,13.33
2023-05-17T20:10:58.062Z,13.34
2023-05-17T20:13:24.809Z,13.35
2023-05-17T20:15:51.497Z,13.35
2023-05-17T20:18:18.088Z,13.34
2023-05-17T20:20:44.748Z,13.29
2023-05-17T20:23:11.643Z,13.27
2023-05-17T20:25:38.255Z,13.24
2023-05-17T20:28:04.920Z,13.21
2023-05-17T20:30:31.742Z,13.18
2023-05-17T20:32:58.616Z,13.16
2023-05-17T20:35:25.271Z,13.15
2023-05-17T20:37:52.321Z,13.12
2023-05-17T20:40:19.726Z,13.11
2023-05-17T20:42:46.326Z,13.10
2023-05-17T20:45:14.657Z,13.10
2023-05-17T20:47:41.516Z,13.10
2023-05-17T20:50:09.059Z,13.09
2023-05-17T20:52:39.298Z,13.08
2023-05-17T20:55:08.736Z,13.09
2023-05-17T20:57:35.477Z,13.11
2023-05-17T21:00:02.273Z,13.10
2023-05-17T21:02:28.953Z,13.10
2023-05-17T21:04:55.765Z,13.11
2023-05-17T21:07:22.569Z,13.11
2023-05-17T21:09:49.218Z,13.12
2023-05-17T21:12:15.823Z,13.11
2023-05-17T21:14:42.420Z,13.12
2023-05-17T21:17:09.008Z,13.12
2023-05-17T21:19:35.643Z,13.12
2023-05-17T21:22:02.412Z,13.11
2023-05-17T21:24:29.030Z,13.10
2023-05-17T21:26:55.731Z,13.08
2023-05-17T21:29:22.485Z,13.06
2023-05-17T21:31:49.228Z,13.06
2023-05-17T21:34:15.981Z,13.05
2023-05-17T21:36:42.659Z,13.03
2023-05-17T21:39:09.375Z,13.02
2023-05-17T21:41:36.075Z,13.00
2023-05-17T21:44:02.940Z,12.99
2023-05-17T21:46:29.633Z,12.97
2023-05-17T21:48:56.364Z,12.94
2023-05-17T21:51:23.038Z,12.92
2023-05-17T21:53:49.648Z,12.89
2023-05-17T21:56:16.335Z,12.84
2023-05-17T21:58:43.155Z,12.85
2023-05-17T22:01:09.943Z,12.80
2023-05-17T22:03:36.669Z,12.77
2023-05-17T22:06:03.544Z,12.72
2023-05-17T22:08:30.238Z,12.69
2023-05-17T22:10:56.935Z,12.66
2023-05-17T22:13:23.616Z,12.63
2023-05-17T22:15:50.334Z,12.61
2023-05-17T22:18:17.253Z,12.60
2023-05-17T22:20:44.113Z,12.57
2023-05-17T22:23:10.855Z,12.56
2023-05-17T22:25:37.801Z,12.56
2023-05-17T22:28:04.453Z,12.55
2023-05-17T22:30:31.422Z,12.54
2023-05-17T22:32:58.534Z,12.53
2023-05-17T22:35:25.347Z,12.51
2023-05-17T22:37:52.003Z,12.50
2023-05-17T22:40:19.010Z,12.47
2023-05-17T22:42:45.780Z,12.44
2023-05-17T22:45:12.542Z,12.40
2023-05-17T22:47:39.293Z,12.33
2023-05-17T22:50:06.426Z,12.29
2023-05-17T22:52:33.103Z,12.21
2023-05-17T22:54:59.696Z,12.14
2023-05-17T22:57:26.403Z,12.06
2023-05-17T22:59:53.169Z,11.97
2023-05-17T23:02:19.879Z,11.89
2023-05-17T23:04:46.697Z,11.82
2023-05-17T23:07:13.370Z,11.73
2023-05-17T23:09:40.039Z,11.64
2023-05-17T23:12:07.691Z,11.56
2023-05-17T23:14:35.332Z,11.47
2023-05-17T23:17:04.364Z,11.38
2023-05-17T23:19:32.411Z,11.30
2023-05-17T23:21:59.212Z,11.15
2023-05-17T23:24:26.036Z,11.16
2023-05-17T23:26:52.744Z,11.08
2023-05-17T23:29:19.416Z,11.02
2023-05-17T23:31:46.176Z,10.97
2023-05-17T23:34:12.919Z,10.89
2023-05-17T23:36:39.541Z,10.84
2023-05-17T23:39:06.274Z,10.79
2023-05-17T23:41:33.049Z,10.72
2023-05-17T23:43:59.624Z,10.68
2023-05-17T23:46:26.419Z,10.63
2023-05-17T23:48:53.078Z,10.58
2023-05-17T23:51:20.209Z,10.55
2023-05-17T23:53:46.941Z,10.51
2023-05-17T23:56:13.691Z,10.49
2023-05-17T23:58:40.415Z,10.45
